createdAt,value
2018-04-19T00:00:37.279Z,17.59
2018-04-19T00:10:37.289Z,17.49
2018-04-19T00:15:37.526Z,17.51
2018-04-19T00:20:34.081Z,17.49
2018-04-19T00:25:35.624Z,17.45
2018-04-19T00:30:32.792Z,17.22
2018-04-19T00:35:32.354Z,17.14
2018-04-19T00:40:33.884Z,17.22
2018-04-19T00:45:30.054Z,17.19
2018-04-19T00:50:28.380Z,17.23
2018-04-19T00:55:29.104Z,17.15
2018-04-19T01:05:29.117Z,16.97
2018-04-19T01:10:25.928Z,16.93
2018-04-19T01:15:29.643Z,16.97
2018-04-19T01:20:25.936Z,16.99
2018-04-19T01:25:26.034Z,16.94
2018-04-19T01:40:26.299Z,16.94
2018-04-19T01:45:27.301Z,16.76
2018-04-19T01:55:26.646Z,16.60
2018-04-19T02:05:29.082Z,16.69
2018-04-19T02:10:25.514Z,16.64
2018-04-19T02:15:27.353Z,16.46
2018-04-19T02:20:28.466Z,16.56
2018-04-19T02:25:32.386Z,16.46
2018-04-19T02:30:29.151Z,16.42
2018-04-19T02:35:29.740Z,16.13
2018-04-19T02:45:31.144Z,15.77
2018-04-19T02:55:39.872Z,15.67
2018-04-19T03:00:40.267Z,15.57
2018-04-19T03:10:42.332Z,15.44
2018-04-19T03:15:42.248Z,15.21
2018-04-19T03:20:38.236Z,15.15
2018-04-19T03:25:39.467Z,15.07
2018-04-19T03:30:40.126Z,15.40
2018-04-19T03:35:40.151Z,15.27
2018-04-19T03:40:40.244Z,15.10
2018-04-19T03:50:41.008Z,15.04
2018-04-19T04:00:43.739Z,15.00
2018-04-19T04:05:43.511Z,14.84
2018-04-19T04:10:41.515Z,14.96
2018-04-19T04:15:41.766Z,14.91
2018-04-19T04:20:41.794Z,14.88
2018-04-19T04:25:43.353Z,14.69
2018-04-19T04:30:38.583Z,14.47
2018-04-19T04:35:38.701Z,14.51
2018-04-19T04:40:38.600Z,14.41
2018-04-19T04:45:35.001Z,14.37
2018-04-19T04:50:36.374Z,14.29
2018-04-19T04:55:35.495Z,14.45
2018-04-19T05:00:35.939Z,14.48
2018-04-19T05:05:35.856Z,14.48
2018-04-19T05:10:31.052Z,14.33
2018-04-19T05:15:29.463Z,14.32
2018-04-19T05:20:30.817Z,14.70
2018-04-19T05:25:27.294Z,14.88
2018-04-19T05:30:26.917Z,15.09
2018-04-19T05:35:23.826Z,15.37
2018-04-19T05:40:25.039Z,15.55
2018-04-19T05:45:27.020Z,15.33
2018-04-19T05:50:22.539Z,15.37
2018-04-19T05:55:19.601Z,15.44
2018-04-19T06:00:17.130Z,15.68
2018-04-19T06:05:18.252Z,15.67
2018-04-19T06:15:17.480Z,16.09
2018-04-19T06:20:17.624Z,16.68
2018-04-19T06:25:18.681Z,16.94
2018-04-19T06:30:18.099Z,17.12
2018-04-19T06:35:18.547Z,17.23
2018-04-19T06:40:18.206Z,17.34
2018-04-19T06:45:17.907Z,17.49
2018-04-19T06:50:20.628Z,17.64
2018-04-19T06:55:16.225Z,17.74
2018-04-19T07:00:18.066Z,17.79
2018-04-19T07:05:19.374Z,18.01
2018-04-19T07:10:16.076Z,18.07
2018-04-19T07:15:16.642Z,18.25
2018-04-19T07:20:12.122Z,18.38
2018-04-19T07:25:13.072Z,18.98
2018-04-19T07:30:14.515Z,19.56
2018-04-19T07:35:15.057Z,20.31
2018-04-19T07:40:14.791Z,20.77
2018-04-19T07:45:11.553Z,21.02
2018-04-19T07:50:13.875Z,20.88
2018-04-19T07:55:10.492Z,20.92
2018-04-19T08:00:12.640Z,21.32
2018-04-19T08:05:14.064Z,23.10
2018-04-19T08:10:15.744Z,24.57
2018-04-19T08:15:17.289Z,25.33
2018-04-19T08:20:14.645Z,25.69
2018-04-19T08:25:16.053Z,26.25
2018-04-19T08:30:12.381Z,26.05
2018-04-19T08:35:10.296Z,25.51
2018-04-19T08:40:12.472Z,26.00
2018-04-19T08:45:09.886Z,25.63
2018-04-19T08:50:10.380Z,25.13
2018-04-19T08:55:07.052Z,24.84
2018-04-19T09:00:03.843Z,24.48
2018-04-19T09:05:04.878Z,24.57
2018-04-19T09:10:04.651Z,24.68
2018-04-19T09:15:00.351Z,24.89
2018-04-19T09:19:57.265Z,24.89
2018-04-19T09:24:53.181Z,24.91
2018-04-19T09:29:50.090Z,25.13
2018-04-19T09:34:45.536Z,25.33
2018-04-19T09:39:41.939Z,25.66
2018-04-19T09:44:40.752Z,26.33
2018-04-19T09:49:37.890Z,27.02
2018-04-19T09:54:35.327Z,27.25
2018-04-19T09:59:31.293Z,27.51
2018-04-19T10:04:28.808Z,28.12
2018-04-19T10:09:26.085Z,28.86
2018-04-19T10:14:28.239Z,29.32
2018-04-19T10:19:30.258Z,29.90
2018-04-19T10:24:30.647Z,30.08
2018-04-19T10:29:31.646Z,30.27
2018-04-19T10:34:27.118Z,30.47
2018-04-19T10:39:24.536Z,30.91
2018-04-19T10:44:25.967Z,31.06
2018-04-19T10:49:26.542Z,30.92
2018-04-19T10:54:23.016Z,30.87
2018-04-19T10:59:22.961Z,31.28
2018-04-19T11:04:26.515Z,30.46
2018-04-19T11:09:25.289Z,30.65
2018-04-19T11:14:24.881Z,30.87
2018-04-19T11:19:21.531Z,30.88
2018-04-19T11:24:23.743Z,30.96
2018-04-19T11:29:24.068Z,30.66
2018-04-19T11:34:24.293Z,31.51
2018-04-19T11:39:19.931Z,32.21
2018-04-19T11:44:19.660Z,31.03
2018-04-19T11:49:18.687Z,31.03
2018-04-19T11:54:13.960Z,31.37
2018-04-19T11:59:11.593Z,29.97
2018-04-19T12:04:11.300Z,29.94
2018-04-19T12:09:06.270Z,30.66
2018-04-19T12:14:01.455Z,29.75
2018-04-19T12:19:01.366Z,28.88
2018-04-19T12:23:57.908Z,28.74
2018-04-19T12:28:54.307Z,28.66
2018-04-19T12:33:56.093Z,28.74
2018-04-19T12:38:52.624Z,28.66
2018-04-19T12:43:48.173Z,28.75
2018-04-19T12:48:48.141Z,29.19
2018-04-19T12:53:44.123Z,29.31
2018-04-19T12:58:41.924Z,29.14
2018-04-19T13:03:38.102Z,28.96
2018-04-19T13:08:37.303Z,28.75
2018-04-19T13:13:37.097Z,28.56
2018-04-19T13:18:33.646Z,28.42
2018-04-19T13:23:33.911Z,28.32
2018-04-19T13:28:32.604Z,28.26
2018-04-19T13:33:32.410Z,28.04
2018-04-19T13:38:31.545Z,28.17
2018-04-19T13:43:31.475Z,28.26
2018-04-19T13:48:30.343Z,28.27
2018-04-19T13:53:31.849Z,28.17
2018-04-19T13:58:26.487Z,28.20
2018-04-19T14:03:26.388Z,28.20
2018-04-19T14:08:25.894Z,28.22
2018-04-19T14:13:22.360Z,28.26
2018-04-19T14:23:24.608Z,28.29
2018-04-19T14:28:21.439Z,28.23
2018-04-19T14:33:22.450Z,28.19
2018-04-19T14:38:21.391Z,28.08
2018-04-19T14:43:16.491Z,28.12
2018-04-19T14:48:17.691Z,28.26
2018-04-19T14:53:18.226Z,28.26
2018-04-19T14:58:14.704Z,28.35
2018-04-19T15:03:11.166Z,28.25
2018-04-19T15:08:07.927Z,28.12
2018-04-19T15:13:04.668Z,28.08
2018-04-19T15:18:05.326Z,28.04
2018-04-19T15:23:00.242Z,28.04
2018-04-19T15:27:56.631Z,27.89
2018-04-19T15:32:56.839Z,28.00
2018-04-19T15:37:55.712Z,27.80
2018-04-19T15:42:51.906Z,27.83
2018-04-19T15:47:52.536Z,27.67
2018-04-19T15:52:48.609Z,27.63
2018-04-19T15:57:48.579Z,27.63
2018-04-19T16:02:50.455Z,27.73
2018-04-19T16:07:49.966Z,27.64
2018-04-19T16:12:45.793Z,27.51
2018-04-19T16:17:47.259Z,27.39
2018-04-19T16:22:48.180Z,27.39
2018-04-19T16:27:48.953Z,27.36
2018-04-19T16:32:47.880Z,27.40
2018-04-19T16:37:47.830Z,27.40
2018-04-19T16:42:44.499Z,27.27
2018-04-19T16:47:43.369Z,27.12
2018-04-19T16:57:45.808Z,26.75
2018-04-19T17:02:43.893Z,26.65
2018-04-19T17:07:47.012Z,26.47
2018-04-19T17:12:47.161Z,26.37
2018-04-19T17:17:48.468Z,26.40
2018-04-19T17:22:44.119Z,26.29
2018-04-19T17:32:47.849Z,26.07
2018-04-19T17:37:44.660Z,26.06
2018-04-19T17:42:45.217Z,25.91
2018-04-19T17:47:40.266Z,25.69
2018-04-19T17:52:42.484Z,25.60
2018-04-19T17:57:44.858Z,25.55
2018-04-19T18:07:48.658Z,25.32
2018-04-19T18:12:48.458Z,25.06
2018-04-19T18:17:45.549Z,25.01
2018-04-19T18:22:42.001Z,24.81
2018-04-19T18:27:42.134Z,24.68
2018-04-19T18:32:39.482Z,24.50
2018-04-19T18:37:34.825Z,24.28
2018-04-19T18:42:33.336Z,24.16
2018-04-19T18:47:33.705Z,23.98
2018-04-19T18:52:30.640Z,23.80
2018-04-19T18:57:31.354Z,23.65
2018-04-19T19:02:28.180Z,23.51
2018-04-19T19:07:29.571Z,23.32
2018-04-19T19:12:30.165Z,23.18
2018-04-19T19:17:30.128Z,23.12
2018-04-19T19:27:28.435Z,22.88
2018-04-19T19:32:28.807Z,22.88
2018-04-19T19:37:28.843Z,22.69
2018-04-19T19:42:28.661Z,22.53
2018-04-19T19:47:27.580Z,22.43
2018-04-19T19:52:27.987Z,22.44
2018-04-19T20:02:26.351Z,22.25
2018-04-19T20:17:32.800Z,22.10
2018-04-19T20:22:29.113Z,22.11
2018-04-19T20:27:26.894Z,21.93
2018-04-19T20:32:23.863Z,21.98
2018-04-19T20:37:20.035Z,21.96
2018-04-19T20:42:20.717Z,21.80
2018-04-19T20:47:20.172Z,21.76
2018-04-19T20:52:20.313Z,21.82
2018-04-19T20:57:22.624Z,21.67
2018-04-19T21:02:24.296Z,21.46
2018-04-19T21:07:23.385Z,21.46
2018-04-19T21:12:24.781Z,21.27
2018-04-19T21:17:27.878Z,21.24
2018-04-19T21:22:28.611Z,21.27
2018-04-19T21:27:30.180Z,21.12
2018-04-19T21:32:27.032Z,21.02
2018-04-19T21:37:24.690Z,20.99
2018-04-19T21:47:28.815Z,20.97
2018-04-19T21:52:28.979Z,20.95
2018-04-19T21:57:26.492Z,20.80
2018-04-19T22:02:28.390Z,20.66
2018-04-19T22:07:26.349Z,20.26
2018-04-19T22:12:24.505Z,20.26
2018-04-19T22:17:21.666Z,20.47
2018-04-19T22:27:27.690Z,20.29
2018-04-19T22:32:22.739Z,20.19
2018-04-19T22:37:19.788Z,20.25
2018-04-19T22:42:18.001Z,20.25
2018-04-19T22:52:22.684Z,20.28
2018-04-19T22:57:23.818Z,20.10
2018-04-19T23:02:23.775Z,20.00
2018-04-19T23:07:24.534Z,19.96
2018-04-19T23:12:22.917Z,19.88
2018-04-19T23:17:24.919Z,19.81
2018-04-19T23:22:23.602Z,19.84
2018-04-19T23:27:26.094Z,19.70
2018-04-19T23:32:22.035Z,19.63
2018-04-19T23:37:18.790Z,19.51
2018-04-19T23:47:21.897Z,19.40
2018-04-19T23:52:24.011Z,19.27
2018-04-19T23:57:23.020Z,19.24
